Latest Weather Observations for Parafield

IDS60901

Issued at 12:41 pm CDT Thursday 23 January 2020 (issued every 10 minutes, with the page automatically refreshed every 10 minutes)

About weather observations | Map of Adelaide area stations | Latest observations for Adelaide area | Other Formats
Station Details ID: 023013 Name: PARAFIELD AIRPORT Lat: -34.80 Lon: 138.63 Height: 9.5 m
Data from the previous 72 hours. | See also: Recent months at Parafield
Date/Time
CDT
Temp
°C
App
Temp
°C
Dew
Point
°C
Rel
Hum
%
Delta-T
°C
Wind Press
QNH
hPa
Press
MSL
hPa
Rain since
9am
mm
Dir  Spd
km/h
Gust
km/h
Spd
kts
Gust
kts
23/12:30pm 20.3 12.9 6.6 41 6.9 SW 35 46 19 25 1004.8 1004.8 0.2
23/12:29pm 21.0 13.7 7.3 41 7.1 SW 35 46 19 25 1004.8 1004.8 0.2
23/12:13pm 19.2 11.4 8.2 49 5.7 WSW 39 52 21 28 1004.4 1004.4 0.2
23/12:00pm 18.9 11.0 6.1 43 6.4 WSW 37 50 20 27 1004.2 1004.2 0.2
23/11:44am 19.1 11.5 5.9 42 6.5 WSW 35 54 19 29 1003.8 1003.8 0.2
23/11:30am 18.8 10.5 6.3 44 6.2 WSW 39 56 21 30 1003.6 1003.6 0.2
23/11:00am 19.2 10.8 7.3 46 6.0 WSW 41 57 22 31 1003.0 1003.0 0.2
23/10:56am 20.0 12.2 8.4 47 6.0 WSW 39 57 21 31 1002.9 1002.9 0.2
23/10:30am 19.2 10.9 7.6 47 5.9 WSW 41 56 22 30 1002.7 1002.7 0.2
23/10:05am 18.9 10.5 9.1 53 5.1 WSW 43 61 23 33 1002.4 1002.4 0.0
23/10:00am 18.9 10.5 9.1 53 5.1 WSW 43 57 23 31 1002.2 1002.2 0.0
23/09:37am 18.4 11.2 9.2 55 4.8 WSW 37 56 20 30 1001.8 1001.8 0.0
23/09:30am 17.9 9.8 8.7 55 4.8 WSW 41 54 22 29 1001.9 1001.9 0.0
23/09:00am 16.9 10.1 10.7 67 3.3 WSW 37 57 20 31 1001.6 1001.6 1.6
23/08:30am 16.2 9.2 11.4 73 2.6 W 39 57 21 31 1001.2 1001.2 1.6
23/08:12am 15.8 10.6 12.9 83 1.6 WSW 32 50 17 27 1000.8 1000.8 1.6
23/08:00am 15.5 11.8 14.9 96 0.3 W 28 37 15 20 1000.7 1000.7 1.6
23/07:30am 15.6 8.5 13.4 87 1.2 WSW 43 63 23 34 999.9 999.9 1.2
23/07:27am 15.9 8.7 13.0 83 1.6 W 43 65 23 35 999.8 999.8 1.2
23/07:12am 17.7 11.8 12.4 71 2.9 WNW 35 54 19 29 999.2 999.2 1.2
23/07:00am 17.3 11.8 12.4 73 2.7 WNW 33 46 18 25 999.0 999.0 1.2
23/06:36am 17.4 13.0 12.9 75 2.5 WNW 28 46 15 25 999.1 999.1 1.2
23/06:30am 17.2 13.6 12.9 76 2.4 WNW 24 37 13 20 999.1 999.1 1.2
23/06:00am 17.0 13.0 12.9 77 2.3 WNW 26 39 14 21 999.1 999.1 1.2
23/05:30am 17.3 12.4 13.8 80 2.0 WNW 32 43 17 23 998.7 998.7 1.2
23/05:05am 17.2 13.4 14.7 85 1.4 NW 28 46 15 25 998.4 998.4 1.2
23/05:00am 17.0 14.1 15.0 88 1.2 NW 24 37 13 20 998.5 998.5 1.2
23/04:30am 16.6 13.6 14.8 89 1.0 NW 24 35 13 19 998.5 998.5 1.2
23/04:00am 15.9 15.9 15.1 95 0.5 WNW 9 19 5 10 998.9 998.9 1.2
23/03:30am 15.7 16.1 15.2 97 0.3 WNW 7 13 4 7 999.0 999.0 1.2
23/03:02am 15.5 14.4 15.3 99 0.1 W 15 20 8 11 999.4 999.4 1.2
23/03:00am 15.4 14.3 15.2 99 0.1 W 15 20 8 11 999.4 999.4 1.2
23/02:37am 15.4 14.7 15.4 100 0.0 W 13 19 7 10 999.6 999.6 1.0
23/02:35am 15.3 14.1 15.1 99 0.1 WNW 15 22 8 12 999.6 999.6 1.0
23/02:30am 15.2 13.0 15.0 99 0.1 WNW 20 32 11 17 999.7 999.7 1.0
23/02:10am 15.9 12.3 13.0 83 1.6 WSW 24 37 13 20 999.7 999.7 0.0
23/02:00am 17.2 14.8 12.5 74 2.6 WSW 17 20 9 11 999.9 999.9 0.0
23/01:30am 17.2 12.9 11.9 71 2.9 WSW 26 33 14 18 1000.3 1000.3 0.0
23/01:00am 18.9 13.6 9.9 56 4.8 WNW 28 41 15 22 1000.3 1000.3 0.0
23/12:55am 18.8 13.3 9.3 54 5.0 WNW 28 41 15 22 1000.4 1000.4 0.0
23/12:30am 17.4 15.3 11.2 67 3.4 WNW 13 19 7 10 1000.6 1000.6 0.0
23/12:00am 17.8 12.7 12.0 69 3.2 W 30 52 16 28 1000.9 1000.9 0.0
 
Date/Time
CDT
Temp
°C
App
Temp
°C
Dew
Point
°C
Rel
Hum
%
Delta-T
°C
Wind Press
QNH
hPa
Press
MSL
hPa
Rain since
9am
mm
Dir  Spd
km/h
Gust
km/h
Spd
kts
Gust
kts
22/11:59pm 18.1 13.4 12.1 68 3.3 W 28 50 15 27 1000.9 1000.9 0.0
22/11:30pm 18.3 15.0 12.7 70 3.1 WSW 22 33 12 18 1000.9 1000.9 0.0
22/11:00pm 18.5 17.0 12.0 66 3.6 W 11 17 6 9 1001.0 1001.0 0.0
22/10:30pm 18.7 15.1 12.0 65 3.7 WSW 22 28 12 15 1001.1 1001.1 0.0
22/10:00pm 19.4 16.2 10.1 55 5.0 W 17 24 9 13 1000.8 1000.8 0.0
22/09:30pm 19.6 15.9 9.5 52 5.4 WNW 19 26 10 14 1000.8 1000.8 0.0
22/09:00pm 19.7 16.3 9.0 50 5.7 W 17 28 9 15 1000.4 1000.4 0.0
22/08:30pm 19.5 16.1 10.5 56 4.9 WSW 19 26 10 14 1000.0 1000.0 0.0
22/08:00pm 19.4 15.8 10.7 57 4.7 SW 20 26 11 14 999.8 999.8 0.0
22/07:30pm 19.6 14.5 10.6 56 4.9 SW 28 35 15 19 999.5 999.5 0.0
22/07:00pm 20.2 15.9 10.9 55 5.1 SW 24 35 13 19 999.1 999.1 0.0
22/06:30pm 20.1 16.3 11.3 57 4.9 SW 22 32 12 17 999.4 999.4 0.0
22/06:00pm 20.3 17.3 12.5 61 4.4 SW 20 26 11 14 998.9 998.9 0.0
22/05:30pm 21.1 16.5 11.2 53 5.5 W 26 37 14 20 999.3 999.3 0.0
22/05:00pm 21.1 16.4 10.6 51 5.7 W 26 37 14 20 999.7 999.7 0.0
22/04:30pm 22.3 17.8 10.1 46 6.7 W 24 33 13 18 1000.0 1000.0 0.0
22/04:00pm 21.2 17.7 12.1 56 5.1 W 22 32 12 17 1000.3 1000.3 0.0
22/03:30pm 21.7 18.7 12.0 54 5.5 WSW 19 28 10 15 1000.6 1000.6 0.0
22/03:00pm 22.2 18.7 11.0 49 6.2 WSW 20 32 11 17 1000.9 1000.9 0.0
22/02:30pm 22.7 18.5 9.8 44 7.0 WSW 22 32 12 17 1000.9 1000.9 0.0
22/02:00pm 23.5 19.0 10.2 43 7.3 WSW 24 37 13 20 1001.1 1001.1 0.0
22/01:30pm 24.7 20.8 12.0 45 7.3 WSW 24 44 13 24 1001.1 1001.1 0.0
22/01:00pm 23.4 18.6 13.0 52 6.0 SW 30 39 16 21 1001.2 1001.2 0.0
22/12:30pm 23.2 18.9 14.5 58 5.2 SW 30 41 16 22 1001.2 1001.2 0.0
22/12:00pm 25.1 21.3 13.6 49 6.8 WSW 26 41 14 22 1000.9 1000.9 0.0
22/11:30am 24.7 20.3 13.0 48 6.8 W 28 35 15 19 1000.6 1000.6 0.0
22/11:00am 25.4 19.2 9.3 36 8.8 W 32 39 17 21 1000.0 1000.0 0.0
22/10:30am 25.6 21.8 9.0 35 9.1 W 19 26 10 14 999.9 999.9 0.0
22/10:00am 23.3 18.0 11.4 47 6.7 WSW 30 44 16 24 1000.0 1000.0 0.0
22/09:45am 24.1 19.5 12.4 48 6.7 W 28 46 15 25 999.7 999.7 0.0
22/09:30am 26.5 22.3 5.5 26 10.9 NNW 17 24 9 13 999.3 999.3 0.0
22/09:00am 25.9 21.1 4.9 26 10.7 N 19 24 10 13 999.2 999.2 0.0
22/08:30am 25.1 20.0 4.3 26 10.4 NNE 20 28 11 15 999.2 999.2 0.0
22/08:00am 24.6 20.5 4.4 27 10.1 N 15 20 8 11 999.9 999.9 0.0
22/07:30am 24.1 18.7 4.5 28 9.8 NNE 22 30 12 16 999.3 999.3 0.0
22/07:00am 23.8 18.7 6.1 32 9.0 NNE 22 30 12 16 999.0 999.0 0.0
22/06:30am 23.4 18.8 6.7 34 8.7 N 20 28 11 15 999.3 999.3 0.0
22/06:00am 23.2 18.7 6.1 33 8.8 NNE 19 26 10 14 999.3 999.3 0.0
22/05:30am 23.4 19.4 6.7 34 8.7 NNE 17 26 9 14 999.2 999.2 0.0
22/05:00am 22.1 18.0 6.3 36 8.0 NNE 17 20 9 11 999.3 999.3 0.0
22/04:30am 21.3 17.8 7.2 40 7.3 NNE 15 19 8 10 999.7 999.7 0.0
22/04:00am 20.8 17.9 8.1 44 6.6 NNE 13 15 7 8 1000.3 1000.3 0.0
22/03:30am 21.6 19.7 9.2 45 6.7 NNW 9 13 5 7 1000.4 1000.4 0.0
22/03:00am 23.2 19.3 5.2 31 9.1 NNW 15 17 8 9 1000.5 1000.5 0.0
22/02:30am 24.7 19.7 4.5 27 10.1 NNE 20 26 11 14 1000.1 1000.1 0.0
22/02:00am 25.7 19.9 4.2 25 10.7 N 24 37 13 20 1000.5 1000.5 0.0
22/01:30am 26.2 20.4 4.6 25 11.0 N 24 35 13 19 1000.9 1000.9 0.0
22/01:00am 26.3 20.6 4.7 25 10.9 NNE 24 33 13 18 1001.3 1001.3 0.0
22/12:30am 26.0 21.3 6.1 28 10.4 NNE 20 28 11 15 1002.0 1002.0 0.0
22/12:00am 24.0 20.8 6.7 33 9.0 NE 13 17 7 9 1002.5 1002.5 0.0
 
Date/Time
CDT
Temp
°C
App
Temp
°C
Dew
Point
°C
Rel
Hum
%
Delta-T
°C
Wind Press
QNH
hPa
Press
MSL
hPa
Rain since
9am
mm
Dir  Spd
km/h
Gust
km/h
Spd
kts
Gust
kts
21/11:30pm 22.6 20.1 8.0 39 7.7 NE 11 13 6 7 1003.0 1003.0 0.0
21/11:00pm 23.4 19.5 7.1 35 8.5 NE 17 20 9 11 1003.2 1003.2 0.0
21/10:30pm 21.7 19.5 9.3 45 6.7 NE 11 15 6 8 1003.4 1003.4 0.0
21/10:00pm 21.2 18.7 9.8 48 6.1 NE 13 15 7 8 1003.7 1003.7 0.0
21/09:30pm 22.7 21.2 9.1 42 7.3 ENE 7 9 4 5 1003.9 1003.9 0.0
21/09:00pm 23.1 20.9 8.0 38 8.0 E 9 9 5 5 1004.0 1004.0 0.0
21/08:30pm 24.0 22.2 8.0 36 8.5 NE 7 9 4 5 1004.1 1004.1 0.0
21/08:00pm 25.0 23.2 7.2 32 9.3 NNE 6 9 3 5 1004.3 1004.3 0.0
21/07:30pm 26.5 24.0 6.5 28 10.5 N 9 13 5 7 1004.6 1004.6 0.0
21/07:00pm 27.1 24.9 6.0 26 11.0 NW 7 13 4 7 1004.7 1004.7 0.0
21/06:30pm 27.2 24.3 4.9 24 11.4 WNW 9 13 5 7 1005.3 1005.3 0.0
21/06:00pm 26.8 23.4 4.0 23 11.5 NW 11 22 6 12 1005.6 1005.6 0.0
21/05:30pm 27.3 22.5 4.4 23 11.6 NW 19 24 10 13 1006.0 1006.0 0.0
21/05:00pm 27.3 21.7 5.6 25 11.2 WNW 24 35 13 19 1006.3 1006.3 0.0
21/04:30pm 26.8 21.7 6.2 27 10.8 WNW 22 33 12 18 1006.7 1006.7 0.0
21/04:00pm 26.8 21.6 7.3 29 10.4 NW 24 35 13 19 1007.3 1007.3 0.0
21/03:30pm 26.0 21.7 7.1 30 10.0 WNW 19 28 10 15 1007.6 1007.6 0.0
21/03:00pm 26.4 22.2 5.9 27 10.6 WNW 17 26 9 14 1008.3 1008.3 0.0
21/02:30pm 24.6 20.3 9.3 38 8.3 W 22 32 12 17 1008.9 1008.9 0.0
21/02:00pm 25.0 20.6 10.5 40 8.1 W 24 32 13 17 1008.8 1008.8 0.0
21/01:30pm 25.4 22.3 10.4 39 8.4 WSW 17 26 9 14 1009.1 1009.1 0.0
21/01:00pm 24.8 21.3 8.7 36 8.7 NW 17 24 9 13 1009.5 1009.5 0.0
21/12:30pm 23.5 21.1 8.8 39 7.9 N 11 24 6 13 1010.0 1010.0 0.0
21/12:00pm 23.1 20.7 10.2 44 7.1 N 13 19 7 10 1010.4 1010.4 0.0
21/11:30am 21.7 19.3 9.9 47 6.4 N 13 19 7 10 1011.0 1011.0 0.0
21/11:00am 21.1 18.6 9.7 48 6.1 NNE 13 19 7 10 1011.1 1011.1 0.0
21/10:30am 20.3 19.1 10.4 53 5.4 N 7 17 4 9 1011.4 1011.4 0.0
21/10:00am 19.6 17.5 9.8 53 5.2 ENE 11 22 6 12 1011.8 1011.8 0.0
21/09:30am 18.7 17.3 10.8 60 4.3 NE 9 17 5 9 1012.1 1012.1 0.0
21/09:00am 18.7 16.7 10.3 58 4.5 ENE 11 17 6 9 1012.3 1012.3 0.6
21/08:30am 17.8 16.3 10.4 62 4.0 NE 9 13 5 7 1012.4 1012.4 0.6
21/08:00am 16.9 15.3 10.3 65 3.5 ENE 9 13 5 7 1012.3 1012.3 0.6
21/07:30am 16.6 15.1 10.7 68 3.1 E 9 15 5 8 1012.2 1012.2 0.6
21/07:00am 16.4 15.9 10.7 69 3.0 N 4 9 2 5 1012.2 1012.2 0.6
21/06:30am 16.1 16.3 10.4 69 3.0 CALM 0 0 0 0 1012.1 1012.1 0.6
21/06:00am 16.2 14.7 10.5 69 3.0 SE 9 13 5 7 1012.0 1012.0 0.6
21/05:30am 16.2 14.8 10.9 71 2.8 SSE 9 15 5 8 1012.0 1012.0 0.6
21/05:00am 16.3 14.5 10.8 70 2.9 SSE 11 15 6 8 1011.9 1011.9 0.6
21/04:30am 16.3 14.9 11.0 71 2.8 SE 9 13 5 7 1011.9 1011.9 0.6
21/04:00am 16.3 14.9 11.0 71 2.8 SE 9 13 5 7 1011.9 1011.9 0.6
21/03:30am 16.3 15.3 11.0 71 2.8 SSE 7 9 4 5 1012.1 1012.1 0.6
21/03:00am 16.4 14.2 10.9 70 2.9 SSE 13 17 7 9 1012.1 1012.1 0.6
21/02:30am 16.4 14.7 11.1 71 2.8 S 11 13 6 7 1012.1 1012.1 0.6
21/02:00am 16.5 15.5 11.0 70 2.9 S 7 9 4 5 1012.2 1012.2 0.6
21/01:30am 16.5 15.1 10.8 69 3.0 S 9 13 5 7 1012.6 1012.6 0.6
21/01:00am 16.6 14.9 11.1 70 3.0 S 11 15 6 8 1012.8 1012.8 0.6
21/12:30am 16.7 14.6 11.0 69 3.1 SSE 13 17 7 9 1012.8 1012.8 0.6
21/12:00am 16.8 14.3 11.1 69 3.1 S 15 17 8 9 1013.1 1013.1 0.6
 
Date/Time
CDT
Temp
°C
App
Temp
°C
Dew
Point
°C
Rel
Hum
%
Delta-T
°C
Wind Press
QNH
hPa
Press
MSL
hPa
Rain since
9am
mm
Dir  Spd
km/h
Gust
km/h
Spd
kts
Gust
kts
20/11:30pm 16.9 14.4 11.0 68 3.2 SSE 15 22 8 12 1013.1 1013.1 0.6
20/11:00pm 16.9 14.1 11.2 69 3.1 S 17 20 9 11 1013.1 1013.1 0.6
20/10:30pm 17.1 14.3 11.4 69 3.1 S 17 24 9 13 1013.3 1013.3 0.6
20/10:00pm 17.1 13.3 11.2 68 3.2 S 22 33 12 18 1012.9 1012.9 0.6
20/09:30pm 17.4 13.9 11.0 66 3.4 S 20 26 11 14 1012.8 1012.8 0.6
20/09:00pm 17.5 13.6 10.9 65 3.6 SSW 22 28 12 15 1012.5 1012.5 0.6
20/08:30pm 17.4 13.5 10.8 65 3.5 S 22 32 12 17 1012.1 1012.1 0.6
20/08:00pm 18.0 14.0 10.6 62 4.0 S 22 28 12 15 1011.7 1011.7 0.6
20/07:30pm 19.0 15.6 11.3 61 4.2 SSW 20 26 11 14 1011.6 1011.6 0.6
20/07:00pm 19.4 14.8 11.2 59 4.5 S 26 33 14 18 1011.3 1011.3 0.6
20/06:30pm 20.0 16.2 12.3 61 4.3 SSW 24 32 13 17 1011.2 1011.2 0.6
20/06:00pm 19.8 16.2 11.8 60 4.4 SSW 22 30 12 16 1011.1 1011.1 0.6
20/05:30pm 20.0 16.9 12.3 61 4.3 S 20 32 11 17 1011.1 1011.1 0.6
20/05:00pm 19.7 15.1 12.2 62 4.2 S 28 35 15 19 1011.2 1011.2 0.6
20/04:30pm 19.1 14.9 12.4 65 3.7 S 26 32 14 17 1011.2 1011.2 0.6
20/04:00pm 19.5 16.3 13.0 66 3.7 S 22 30 12 16 1011.1 1011.1 0.6
20/03:30pm 19.6 16.0 13.1 66 3.7 S 24 30 13 16 1011.2 1011.2 0.6
20/03:00pm 19.8 16.1 12.6 63 4.1 S 24 30 13 16 1011.2 1011.2 0.6
20/02:30pm 19.7 15.6 12.7 64 3.9 S 26 33 14 18 1011.3 1011.3 0.6
20/02:00pm 20.5 16.9 13.2 63 4.2 SSW 24 35 13 19 1011.1 1011.1 0.6
20/01:30pm 20.9 16.7 13.4 62 4.3 SSW 28 37 15 20 1011.0 1011.0 0.6
20/01:00pm 20.4 15.2 13.4 64 4.0 S 33 46 18 25 1010.9 1010.9 0.6

Latest Capital City Observations: Canberra | Sydney | Melbourne | Brisbane | Adelaide | Perth | Hobart | Darwin

Other formats

Comma delimited format used in spreadsheet applications
http://www.bom.gov.au/fwo/IDS60901/IDS60901.95677.axf

JavaScript Object Notation format (JSON) in row-major order
http://www.bom.gov.au/fwo/IDS60901/IDS60901.95677.json

Data quality

Most of these data are generated automatically and are frequently updated. Quality checks on data are not normally performed. It is possible for incorrect values to appear. Refer to information at About Latest Weather Observations and please check the disclaimer before using these data.